sensor_id;sensor_type;location;lat;lon;timestamp;P1;durP1;ratioP1;P2;durP2;ratioP2
26536;SDS011;14204;51.262;5.488;2023-07-16T00:02:02;5.18;;;3.90;;
26536;SDS011;14204;51.262;5.488;2023-07-16T00:04:28;12.45;;;3.88;;
26536;SDS011;14204;51.262;5.488;2023-07-16T00:06:53;5.88;;;3.42;;
26536;SDS011;14204;51.262;5.488;2023-07-16T00:09:19;7.35;;;3.90;;
26536;SDS011;14204;51.262;5.488;2023-07-16T00:11:45;7.25;;;3.50;;
26536;SDS011;14204;51.262;5.488;2023-07-16T00:14:10;7.78;;;3.30;;
26536;SDS011;14204;51.262;5.488;2023-07-16T00:16:37;8.77;;;3.60;;
26536;SDS011;14204;51.262;5.488;2023-07-16T00:19:03;7.88;;;3.35;;
26536;SDS011;14204;51.262;5.488;2023-07-16T00:21:28;7.68;;;3.28;;
26536;SDS011;14204;51.262;5.488;2023-07-16T00:23:54;8.43;;;3.75;;
26536;SDS011;14204;51.262;5.488;2023-07-16T00:26:20;7.82;;;3.63;;
26536;SDS011;14204;51.262;5.488;2023-07-16T00:28:46;7.95;;;3.80;;
26536;SDS011;14204;51.262;5.488;2023-07-16T00:31:12;8.60;;;3.53;;
26536;SDS011;14204;51.262;5.488;2023-07-16T00:33:38;8.05;;;3.53;;
26536;SDS011;14204;51.262;5.488;2023-07-16T00:36:03;13.38;;;4.47;;
26536;SDS011;14204;51.262;5.488;2023-07-16T00:38:29;8.65;;;3.50;;
26536;SDS011;14204;51.262;5.488;2023-07-16T00:40:56;12.07;;;3.75;;
26536;SDS011;14204;51.262;5.488;2023-07-16T00:43:21;9.38;;;3.95;;
26536;SDS011;14204;51.262;5.488;2023-07-16T00:45:47;7.50;;;3.22;;
26536;SDS011;14204;51.262;5.488;2023-07-16T00:48:14;4.82;;;3.00;;
26536;SDS011;14204;51.262;5.488;2023-07-16T00:50:40;12.98;;;3.80;;
26536;SDS011;14204;51.262;5.488;2023-07-16T00:53:06;11.02;;;3.38;;
26536;SDS011;14204;51.262;5.488;2023-07-16T00:55:36;10.35;;;3.40;;
26536;SDS011;14204;51.262;5.488;2023-07-16T00:58:05;8.30;;;3.63;;
26536;SDS011;14204;51.262;5.488;2023-07-16T01:00:33;12.52;;;4.32;;
26536;SDS011;14204;51.262;5.488;2023-07-16T01:03:01;11.30;;;4.28;;
26536;SDS011;14204;51.262;5.488;2023-07-16T01:05:29;11.32;;;3.97;;
26536;SDS011;14204;51.262;5.488;2023-07-16T01:08:02;11.57;;;4.15;;
26536;SDS011;14204;51.262;5.488;2023-07-16T01:10:31;5.78;;;3.30;;
26536;SDS011;14204;51.262;5.488;2023-07-16T01:12:58;7.97;;;3.85;;
26536;SDS011;14204;51.262;5.488;2023-07-16T01:15:24;8.18;;;3.63;;
26536;SDS011;14204;51.262;5.488;2023-07-16T01:17:50;9.63;;;4.10;;
26536;SDS011;14204;51.262;5.488;2023-07-16T01:20:15;7.05;;;3.78;;
26536;SDS011;14204;51.262;5.488;2023-07-16T01:30:28;10.05;;;4.07;;
26536;SDS011;14204;51.262;5.488;2023-07-16T01:32:55;6.65;;;3.83;;
26536;SDS011;14204;51.262;5.488;2023-07-16T01:35:22;8.25;;;4.03;;
26536;SDS011;14204;51.262;5.488;2023-07-16T01:37:48;7.63;;;3.80;;
26536;SDS011;14204;51.262;5.488;2023-07-16T01:40:14;10.23;;;4.25;;
26536;SDS011;14204;51.262;5.488;2023-07-16T01:42:40;7.72;;;3.97;;
26536;SDS011;14204;51.262;5.488;2023-07-16T01:45:06;11.88;;;3.90;;
26536;SDS011;14204;51.262;5.488;2023-07-16T01:50:03;7.68;;;3.92;;
26536;SDS011;14204;51.262;5.488;2023-07-16T01:52:28;7.03;;;3.90;;
26536;SDS011;14204;51.262;5.488;2023-07-16T01:54:54;9.75;;;4.32;;
26536;SDS011;14204;51.262;5.488;2023-07-16T01:57:20;14.55;;;4.28;;
26536;SDS011;14204;51.262;5.488;2023-07-16T01:59:45;7.93;;;4.13;;
26536;SDS011;14204;51.262;5.488;2023-07-16T02:02:11;8.35;;;3.85;;
26536;SDS011;14204;51.262;5.488;2023-07-16T02:04:37;12.27;;;4.70;;
26536;SDS011;14204;51.262;5.488;2023-07-16T02:07:03;10.40;;;4.18;;
26536;SDS011;14204;51.262;5.488;2023-07-16T02:09:29;8.38;;;4.28;;
26536;SDS011;14204;51.262;5.488;2023-07-16T02:11:54;11.40;;;4.28;;
26536;SDS011;14204;51.262;5.488;2023-07-16T02:14:20;10.52;;;3.95;;
26536;SDS011;14204;51.262;5.488;2023-07-16T02:16:45;9.43;;;3.92;;
26536;SDS011;14204;51.262;5.488;2023-07-16T02:19:11;10.05;;;4.13;;
26536;SDS011;14204;51.262;5.488;2023-07-16T02:21:37;6.80;;;4.30;;
26536;SDS011;14204;51.262;5.488;2023-07-16T02:24:03;8.85;;;4.10;;
26536;SDS011;14204;51.262;5.488;2023-07-16T02:26:28;12.73;;;3.88;;
26536;SDS011;14204;51.262;5.488;2023-07-16T02:28:54;7.90;;;3.20;;
26536;SDS011;14204;51.262;5.488;2023-07-16T02:31:20;8.75;;;3.78;;
26536;SDS011;14204;51.262;5.488;2023-07-16T02:33:45;6.20;;;3.30;;
26536;SDS011;14204;51.262;5.488;2023-07-16T02:36:11;11.35;;;3.60;;
26536;SDS011;14204;51.262;5.488;2023-07-16T02:38:37;8.05;;;3.63;;
26536;SDS011;14204;51.262;5.488;2023-07-16T02:41:03;10.57;;;3.70;;
26536;SDS011;14204;51.262;5.488;2023-07-16T02:43:28;12.48;;;3.80;;
26536;SDS011;14204;51.262;5.488;2023-07-16T02:45:54;10.75;;;4.15;;
26536;SDS011;14204;51.262;5.488;2023-07-16T02:48:20;11.43;;;3.83;;
26536;SDS011;14204;51.262;5.488;2023-07-16T02:50:45;6.03;;;3.17;;
26536;SDS011;14204;51.262;5.488;2023-07-16T02:53:11;9.73;;;4.07;;
26536;SDS011;14204;51.262;5.488;2023-07-16T02:55:37;14.82;;;4.40;;
26536;SDS011;14204;51.262;5.488;2023-07-16T02:58:02;9.93;;;3.55;;
26536;SDS011;14204;51.262;5.488;2023-07-16T03:00:32;8.32;;;4.53;;
26536;SDS011;14204;51.262;5.488;2023-07-16T03:02:58;9.52;;;3.95;;
26536;SDS011;14204;51.262;5.488;2023-07-16T03:05:25;11.75;;;4.40;;
26536;SDS011;14204;51.262;5.488;2023-07-16T03:07:51;7.45;;;3.45;;
26536;SDS011;14204;51.262;5.488;2023-07-16T03:10:17;10.02;;;3.83;;
26536;SDS011;14204;51.262;5.488;2023-07-16T03:12:43;12.55;;;4.30;;
26536;SDS011;14204;51.262;5.488;2023-07-16T03:15:08;10.25;;;3.88;;
26536;SDS011;14204;51.262;5.488;2023-07-16T03:17:34;8.50;;;4.13;;
26536;SDS011;14204;51.262;5.488;2023-07-16T03:20:00;10.60;;;3.92;;
26536;SDS011;14204;51.262;5.488;2023-07-16T03:22:26;9.57;;;3.78;;
26536;SDS011;14204;51.262;5.488;2023-07-16T03:24:52;8.98;;;4.47;;
26536;SDS011;14204;51.262;5.488;2023-07-16T03:27:17;10.68;;;4.15;;
26536;SDS011;14204;51.262;5.488;2023-07-16T03:29:43;12.00;;;4.60;;
26536;SDS011;14204;51.262;5.488;2023-07-16T03:32:09;7.57;;;3.83;;
26536;SDS011;14204;51.262;5.488;2023-07-16T03:34:34;6.95;;;3.58;;
26536;SDS011;14204;51.262;5.488;2023-07-16T03:37:00;9.52;;;4.32;;
26536;SDS011;14204;51.262;5.488;2023-07-16T03:39:25;14.38;;;4.25;;
26536;SDS011;14204;51.262;5.488;2023-07-16T03:41:51;11.63;;;4.20;;
26536;SDS011;14204;51.262;5.488;2023-07-16T03:44:17;13.93;;;4.50;;
26536;SDS011;14204;51.262;5.488;2023-07-16T03:46:42;8.57;;;4.20;;
26536;SDS011;14204;51.262;5.488;2023-07-16T03:49:08;15.52;;;5.53;;
26536;SDS011;14204;51.262;5.488;2023-07-16T03:51:34;14.80;;;5.43;;
26536;SDS011;14204;51.262;5.488;2023-07-16T03:54:00;18.02;;;5.93;;
26536;SDS011;14204;51.262;5.488;2023-07-16T03:56:25;15.85;;;5.38;;
26536;SDS011;14204;51.262;5.488;2023-07-16T03:58:51;12.23;;;5.50;;
26536;SDS011;14204;51.262;5.488;2023-07-16T04:01:17;11.50;;;5.20;;
26536;SDS011;14204;51.262;5.488;2023-07-16T04:03:42;12.57;;;5.40;;
26536;SDS011;14204;51.262;5.488;2023-07-16T04:06:08;15.65;;;5.75;;
26536;SDS011;14204;51.262;5.488;2023-07-16T04:08:35;15.05;;;5.03;;
26536;SDS011;14204;51.262;5.488;2023-07-16T04:11:02;12.15;;;5.55;;
26536;SDS011;14204;51.262;5.488;2023-07-16T04:13:29;14.18;;;5.75;;
26536;SDS011;14204;51.262;5.488;2023-07-16T04:15:54;13.50;;;5.43;;
26536;SDS011;14204;51.262;5.488;2023-07-16T04:18:22;17.00;;;5.05;;
26536;SDS011;14204;51.262;5.488;2023-07-16T04:20:48;14.88;;;5.65;;
26536;SDS011;14204;51.262;5.488;2023-07-16T04:23:14;17.50;;;5.57;;
26536;SDS011;14204;51.262;5.488;2023-07-16T04:25:40;15.02;;;6.20;;
26536;SDS011;14204;51.262;5.488;2023-07-16T04:28:06;12.90;;;6.00;;
26536;SDS011;14204;51.262;5.488;2023-07-16T04:30:31;16.85;;;5.63;;
26536;SDS011;14204;51.262;5.488;2023-07-16T04:32:57;12.93;;;6.18;;
26536;SDS011;14204;51.262;5.488;2023-07-16T04:35:23;15.75;;;5.75;;
26536;SDS011;14204;51.262;5.488;2023-07-16T04:37:48;16.15;;;5.93;;
26536;SDS011;14204;51.262;5.488;2023-07-16T04:40:14;15.85;;;5.75;;
26536;SDS011;14204;51.262;5.488;2023-07-16T04:42:40;14.25;;;5.75;;
26536;SDS011;14204;51.262;5.488;2023-07-16T04:45:05;12.23;;;4.90;;
26536;SDS011;14204;51.262;5.488;2023-07-16T04:47:31;12.55;;;5.85;;
26536;SDS011;14204;51.262;5.488;2023-07-16T04:49:58;14.68;;;5.65;;
26536;SDS011;14204;51.262;5.488;2023-07-16T04:52:24;12.43;;;5.75;;
26536;SDS011;14204;51.262;5.488;2023-07-16T04:54:49;18.88;;;6.35;;
26536;SDS011;14204;51.262;5.488;2023-07-16T04:57:15;16.42;;;6.30;;
26536;SDS011;14204;51.262;5.488;2023-07-16T04:59:41;19.35;;;6.50;;
26536;SDS011;14204;51.262;5.488;2023-07-16T05:02:06;16.60;;;6.85;;
26536;SDS011;14204;51.262;5.488;2023-07-16T05:04:32;11.95;;;6.10;;
26536;SDS011;14204;51.262;5.488;2023-07-16T05:07:01;18.77;;;6.68;;
26536;SDS011;14204;51.262;5.488;2023-07-16T05:09:28;15.68;;;6.85;;
26536;SDS011;14204;51.262;5.488;2023-07-16T05:11:54;15.20;;;6.32;;
26536;SDS011;14204;51.262;5.488;2023-07-16T05:14:19;13.30;;;6.15;;
26536;SDS011;14204;51.262;5.488;2023-07-16T05:16:45;18.05;;;6.25;;
26536;SDS011;14204;51.262;5.488;2023-07-16T05:19:11;16.27;;;6.95;;
26536;SDS011;14204;51.262;5.488;2023-07-16T05:21:37;18.27;;;7.57;;
26536;SDS011;14204;51.262;5.488;2023-07-16T05:24:03;16.13;;;7.63;;
26536;SDS011;14204;51.262;5.488;2023-07-16T05:26:29;14.18;;;7.28;;
26536;SDS011;14204;51.262;5.488;2023-07-16T05:28:55;17.33;;;6.90;;
26536;SDS011;14204;51.262;5.488;2023-07-16T05:31:20;17.88;;;7.20;;
26536;SDS011;14204;51.262;5.488;2023-07-16T05:33:46;16.35;;;6.28;;
26536;SDS011;14204;51.262;5.488;2023-07-16T05:36:12;15.07;;;6.60;;
26536;SDS011;14204;51.262;5.488;2023-07-16T05:38:38;17.52;;;6.85;;
26536;SDS011;14204;51.262;5.488;2023-07-16T05:41:03;22.48;;;6.72;;
26536;SDS011;14204;51.262;5.488;2023-07-16T05:43:30;13.43;;;6.68;;
26536;SDS011;14204;51.262;5.488;2023-07-16T05:45:56;15.85;;;6.90;;
26536;SDS011;14204;51.262;5.488;2023-07-16T05:48:21;12.00;;;7.10;;
26536;SDS011;14204;51.262;5.488;2023-07-16T05:50:48;15.73;;;6.63;;
26536;SDS011;14204;51.262;5.488;2023-07-16T05:53:14;16.10;;;7.07;;
26536;SDS011;14204;51.262;5.488;2023-07-16T05:55:39;15.40;;;7.25;;
26536;SDS011;14204;51.262;5.488;2023-07-16T05:58:05;19.42;;;7.82;;
26536;SDS011;14204;51.262;5.488;2023-07-16T06:00:31;15.85;;;6.60;;
26536;SDS011;14204;51.262;5.488;2023-07-16T06:02:57;16.48;;;7.00;;
26536;SDS011;14204;51.262;5.488;2023-07-16T06:05:22;20.42;;;6.85;;
26536;SDS011;14204;51.262;5.488;2023-07-16T06:07:50;21.00;;;7.68;;
26536;SDS011;14204;51.262;5.488;2023-07-16T06:10:15;18.65;;;7.93;;
26536;SDS011;14204;51.262;5.488;2023-07-16T06:12:41;19.80;;;7.82;;
26536;SDS011;14204;51.262;5.488;2023-07-16T06:15:07;11.20;;;7.78;;
26536;SDS011;14204;51.262;5.488;2023-07-16T06:17:33;22.83;;;7.63;;
26536;SDS011;14204;51.262;5.488;2023-07-16T06:19:59;19.35;;;7.72;;
26536;SDS011;14204;51.262;5.488;2023-07-16T06:22:24;13.73;;;7.25;;
26536;SDS011;14204;51.262;5.488;2023-07-16T06:24:50;20.83;;;8.55;;
26536;SDS011;14204;51.262;5.488;2023-07-16T06:27:15;18.90;;;8.35;;
26536;SDS011;14204;51.262;5.488;2023-07-16T06:29:41;19.25;;;9.13;;
26536;SDS011;14204;51.262;5.488;2023-07-16T06:32:07;16.60;;;8.27;;
26536;SDS011;14204;51.262;5.488;2023-07-16T06:34:33;20.52;;;8.75;;
26536;SDS011;14204;51.262;5.488;2023-07-16T06:36:59;19.67;;;8.55;;
26536;SDS011;14204;51.262;5.488;2023-07-16T06:39:25;24.63;;;9.23;;
26536;SDS011;14204;51.262;5.488;2023-07-16T06:41:50;17.60;;;8.50;;
26536;SDS011;14204;51.262;5.488;2023-07-16T06:44:16;19.58;;;8.70;;
26536;SDS011;14204;51.262;5.488;2023-07-16T06:46:42;15.70;;;9.30;;
26536;SDS011;14204;51.262;5.488;2023-07-16T06:49:08;18.90;;;9.00;;
26536;SDS011;14204;51.262;5.488;2023-07-16T06:51:33;21.52;;;10.07;;
26536;SDS011;14204;51.262;5.488;2023-07-16T06:53:59;21.92;;;9.40;;
26536;SDS011;14204;51.262;5.488;2023-07-16T06:56:25;18.58;;;8.85;;
26536;SDS011;14204;51.262;5.488;2023-07-16T06:58:51;16.83;;;9.13;;
26536;SDS011;14204;51.262;5.488;2023-07-16T07:01:16;15.13;;;9.18;;
26536;SDS011;14204;51.262;5.488;2023-07-16T07:03:42;22.38;;;9.75;;
26536;SDS011;14204;51.262;5.488;2023-07-16T07:06:07;21.55;;;8.52;;
26536;SDS011;14204;51.262;5.488;2023-07-16T07:08:36;22.85;;;9.18;;
26536;SDS011;14204;51.262;5.488;2023-07-16T07:11:02;18.80;;;9.10;;
26536;SDS011;14204;51.262;5.488;2023-07-16T07:13:28;20.45;;;8.90;;
26536;SDS011;14204;51.262;5.488;2023-07-16T07:15:54;15.15;;;7.82;;
26536;SDS011;14204;51.262;5.488;2023-07-16T07:18:21;17.15;;;8.90;;
26536;SDS011;14204;51.262;5.488;2023-07-16T07:20:47;18.55;;;8.75;;
26536;SDS011;14204;51.262;5.488;2023-07-16T07:23:12;20.63;;;8.95;;
26536;SDS011;14204;51.262;5.488;2023-07-16T07:25:38;16.02;;;8.57;;
26536;SDS011;14204;51.262;5.488;2023-07-16T07:28:04;14.65;;;8.93;;
26536;SDS011;14204;51.262;5.488;2023-07-16T07:30:30;15.05;;;8.05;;
26536;SDS011;14204;51.262;5.488;2023-07-16T07:32:55;15.40;;;7.97;;
26536;SDS011;14204;51.262;5.488;2023-07-16T07:35:21;16.38;;;8.45;;
26536;SDS011;14204;51.262;5.488;2023-07-16T07:37:47;19.13;;;8.32;;
26536;SDS011;14204;51.262;5.488;2023-07-16T07:40:12;15.32;;;8.68;;
26536;SDS011;14204;51.262;5.488;2023-07-16T07:42:39;19.48;;;8.48;;
26536;SDS011;14204;51.262;5.488;2023-07-16T07:45:05;25.52;;;9.15;;
26536;SDS011;14204;51.262;5.488;2023-07-16T07:47:31;18.13;;;8.25;;
26536;SDS011;14204;51.262;5.488;2023-07-16T07:49:56;18.90;;;8.85;;
26536;SDS011;14204;51.262;5.488;2023-07-16T07:52:22;17.80;;;8.10;;
26536;SDS011;14204;51.262;5.488;2023-07-16T07:54:48;20.33;;;8.50;;
26536;SDS011;14204;51.262;5.488;2023-07-16T07:57:14;18.75;;;7.63;;
26536;SDS011;14204;51.262;5.488;2023-07-16T07:59:40;19.45;;;8.77;;
26536;SDS011;14204;51.262;5.488;2023-07-16T08:02:05;17.10;;;8.70;;
26536;SDS011;14204;51.262;5.488;2023-07-16T08:04:31;13.80;;;7.72;;
26536;SDS011;14204;51.262;5.488;2023-07-16T08:06:59;13.73;;;7.82;;
26536;SDS011;14204;51.262;5.488;2023-07-16T08:09:26;18.55;;;7.82;;
26536;SDS011;14204;51.262;5.488;2023-07-16T08:11:52;23.23;;;7.85;;
26536;SDS011;14204;51.262;5.488;2023-07-16T08:14:17;12.20;;;7.38;;
26536;SDS011;14204;51.262;5.488;2023-07-16T08:16:43;19.50;;;7.78;;
26536;SDS011;14204;51.262;5.488;2023-07-16T08:19:09;14.45;;;8.23;;
26536;SDS011;14204;51.262;5.488;2023-07-16T08:21:35;16.27;;;7.18;;
26536;SDS011;14204;51.262;5.488;2023-07-16T08:24:03;14.65;;;6.78;;
26536;SDS011;14204;51.262;5.488;2023-07-16T08:26:32;12.23;;;6.82;;
26536;SDS011;14204;51.262;5.488;2023-07-16T08:28:57;12.80;;;6.95;;
26536;SDS011;14204;51.262;5.488;2023-07-16T08:31:24;16.85;;;7.38;;
26536;SDS011;14204;51.262;5.488;2023-07-16T08:33:50;14.73;;;6.95;;
26536;SDS011;14204;51.262;5.488;2023-07-16T08:36:16;12.65;;;6.45;;
26536;SDS011;14204;51.262;5.488;2023-07-16T08:38:41;14.82;;;6.68;;
26536;SDS011;14204;51.262;5.488;2023-07-16T08:41:07;12.73;;;6.45;;
26536;SDS011;14204;51.262;5.488;2023-07-16T08:43:33;9.77;;;6.30;;
26536;SDS011;14204;51.262;5.488;2023-07-16T08:46:00;9.23;;;6.10;;
26536;SDS011;14204;51.262;5.488;2023-07-16T08:48:28;13.75;;;6.20;;
26536;SDS011;14204;51.262;5.488;2023-07-16T08:50:54;14.15;;;6.68;;
26536;SDS011;14204;51.262;5.488;2023-07-16T08:53:22;16.48;;;6.32;;
26536;SDS011;14204;51.262;5.488;2023-07-16T08:55:48;15.30;;;6.40;;
26536;SDS011;14204;51.262;5.488;2023-07-16T08:58:14;15.65;;;6.85;;
26536;SDS011;14204;51.262;5.488;2023-07-16T09:00:49;14.55;;;6.57;;
26536;SDS011;14204;51.262;5.488;2023-07-16T09:03:16;12.40;;;6.22;;
26536;SDS011;14204;51.262;5.488;2023-07-16T09:05:43;18.75;;;6.65;;
26536;SDS011;14204;51.262;5.488;2023-07-16T09:08:09;10.35;;;6.40;;
26536;SDS011;14204;51.262;5.488;2023-07-16T09:10:36;15.32;;;6.45;;
26536;SDS011;14204;51.262;5.488;2023-07-16T09:13:02;10.20;;;6.18;;
26536;SDS011;14204;51.262;5.488;2023-07-16T09:15:28;9.38;;;6.05;;
26536;SDS011;14204;51.262;5.488;2023-07-16T09:17:54;11.02;;;6.05;;
26536;SDS011;14204;51.262;5.488;2023-07-16T09:20:21;12.30;;;5.40;;
26536;SDS011;14204;51.262;5.488;2023-07-16T09:22:48;10.32;;;5.82;;
26536;SDS011;14204;51.262;5.488;2023-07-16T09:25:15;9.00;;;5.50;;
26536;SDS011;14204;51.262;5.488;2023-07-16T09:27:40;9.82;;;5.55;;
26536;SDS011;14204;51.262;5.488;2023-07-16T09:30:06;7.35;;;4.90;;
26536;SDS011;14204;51.262;5.488;2023-07-16T09:32:39;13.23;;;5.50;;
26536;SDS011;14204;51.262;5.488;2023-07-16T09:35:11;11.68;;;5.55;;
26536;SDS011;14204;51.262;5.488;2023-07-16T09:37:41;13.02;;;5.00;;
26536;SDS011;14204;51.262;5.488;2023-07-16T09:40:07;8.55;;;4.63;;
26536;SDS011;14204;51.262;5.488;2023-07-16T09:42:42;10.63;;;4.57;;
26536;SDS011;14204;51.262;5.488;2023-07-16T09:45:12;6.65;;;3.63;;
26536;SDS011;14204;51.262;5.488;2023-07-16T09:47:42;12.13;;;4.57;;
26536;SDS011;14204;51.262;5.488;2023-07-16T09:50:08;10.07;;;4.78;;
26536;SDS011;14204;51.262;5.488;2023-07-16T09:52:34;11.15;;;5.18;;
26536;SDS011;14204;51.262;5.488;2023-07-16T09:55:03;5.85;;;4.10;;
26536;SDS011;14204;51.262;5.488;2023-07-16T09:57:32;11.48;;;5.18;;
26536;SDS011;14204;51.262;5.488;2023-07-16T10:00:02;8.52;;;5.55;;
26536;SDS011;14204;51.262;5.488;2023-07-16T10:02:35;8.23;;;5.38;;
26536;SDS011;14204;51.262;5.488;2023-07-16T10:05:18;9.52;;;4.60;;
26536;SDS011;14204;51.262;5.488;2023-07-16T10:07:51;7.90;;;4.28;;
26536;SDS011;14204;51.262;5.488;2023-07-16T10:10:17;9.50;;;4.68;;
26536;SDS011;14204;51.262;5.488;2023-07-16T10:12:54;7.43;;;4.90;;
26536;SDS011;14204;51.262;5.488;2023-07-16T10:15:27;10.32;;;4.78;;
26536;SDS011;14204;51.262;5.488;2023-07-16T10:17:54;8.25;;;4.95;;
26536;SDS011;14204;51.262;5.488;2023-07-16T10:20:36;8.70;;;4.20;;
26536;SDS011;14204;51.262;5.488;2023-07-16T10:23:11;7.93;;;4.78;;
26536;SDS011;14204;51.262;5.488;2023-07-16T10:25:57;11.43;;;4.85;;
26536;SDS011;14204;51.262;5.488;2023-07-16T10:28:24;9.07;;;4.78;;
26536;SDS011;14204;51.262;5.488;2023-07-16T10:30:50;14.68;;;4.45;;
26536;SDS011;14204;51.262;5.488;2023-07-16T10:33:15;41.53;;;7.30;;
26536;SDS011;14204;51.262;5.488;2023-07-16T10:35:42;38.03;;;5.65;;
26536;SDS011;14204;51.262;5.488;2023-07-16T10:38:10;7.18;;;4.25;;
26536;SDS011;14204;51.262;5.488;2023-07-16T10:40:45;7.88;;;4.18;;
26536;SDS011;14204;51.262;5.488;2023-07-16T10:43:11;9.35;;;4.00;;
26536;SDS011;14204;51.262;5.488;2023-07-16T10:45:37;19.52;;;4.75;;
26536;SDS011;14204;51.262;5.488;2023-07-16T10:48:04;17.42;;;4.78;;
26536;SDS011;14204;51.262;5.488;2023-07-16T10:50:33;9.50;;;4.50;;
26536;SDS011;14204;51.262;5.488;2023-07-16T10:52:59;8.90;;;4.25;;
26536;SDS011;14204;51.262;5.488;2023-07-16T10:55:26;13.45;;;4.70;;
26536;SDS011;14204;51.262;5.488;2023-07-16T10:57:53;111.95;;;9.93;;
26536;SDS011;14204;51.262;5.488;2023-07-16T11:00:20;11.65;;;4.70;;
26536;SDS011;14204;51.262;5.488;2023-07-16T11:02:48;26.98;;;5.75;;
26536;SDS011;14204;51.262;5.488;2023-07-16T11:05:16;80.30;;;9.23;;
26536;SDS011;14204;51.262;5.488;2023-07-16T11:07:43;10.65;;;4.72;;
26536;SDS011;14204;51.262;5.488;2023-07-16T11:10:10;13.10;;;4.30;;
26536;SDS011;14204;51.262;5.488;2023-07-16T11:12:36;12.40;;;4.47;;
26536;SDS011;14204;51.262;5.488;2023-07-16T11:15:02;13.68;;;5.43;;
26536;SDS011;14204;51.262;5.488;2023-07-16T11:17:28;9.77;;;4.70;;
26536;SDS011;14204;51.262;5.488;2023-07-16T11:19:54;10.25;;;4.47;;
26536;SDS011;14204;51.262;5.488;2023-07-16T11:22:24;9.35;;;5.22;;
26536;SDS011;14204;51.262;5.488;2023-07-16T11:24:54;7.40;;;4.70;;
26536;SDS011;14204;51.262;5.488;2023-07-16T11:27:21;7.28;;;4.60;;
26536;SDS011;14204;51.262;5.488;2023-07-16T11:29:55;7.40;;;4.10;;
26536;SDS011;14204;51.262;5.488;2023-07-16T11:32:32;13.13;;;4.00;;
26536;SDS011;14204;51.262;5.488;2023-07-16T11:35:08;8.80;;;4.43;;
26536;SDS011;14204;51.262;5.488;2023-07-16T11:37:41;8.30;;;4.35;;
26536;SDS011;14204;51.262;5.488;2023-07-16T11:40:08;6.72;;;4.10;;
26536;SDS011;14204;51.262;5.488;2023-07-16T11:42:38;10.02;;;4.63;;
26536;SDS011;14204;51.262;5.488;2023-07-16T11:45:05;5.10;;;4.18;;
26536;SDS011;14204;51.262;5.488;2023-07-16T11:47:39;9.02;;;4.28;;
26536;SDS011;14204;51.262;5.488;2023-07-16T11:50:05;6.28;;;4.57;;
26536;SDS011;14204;51.262;5.488;2023-07-16T11:52:32;9.45;;;4.22;;
26536;SDS011;14204;51.262;5.488;2023-07-16T11:54:58;9.90;;;4.32;;
26536;SDS011;14204;51.262;5.488;2023-07-16T11:57:30;11.30;;;4.30;;
26536;SDS011;14204;51.262;5.488;2023-07-16T11:59:56;12.65;;;5.30;;
26536;SDS011;14204;51.262;5.488;2023-07-16T12:02:22;10.15;;;4.97;;
26536;SDS011;14204;51.262;5.488;2023-07-16T12:04:48;12.60;;;5.15;;
26536;SDS011;14204;51.262;5.488;2023-07-16T12:07:14;8.10;;;4.78;;
26536;SDS011;14204;51.262;5.488;2023-07-16T12:09:39;10.07;;;5.15;;
26536;SDS011;14204;51.262;5.488;2023-07-16T12:12:06;8.70;;;5.18;;
26536;SDS011;14204;51.262;5.488;2023-07-16T12:14:32;9.77;;;5.00;;
26536;SDS011;14204;51.262;5.488;2023-07-16T12:16:58;8.82;;;5.05;;
26536;SDS011;14204;51.262;5.488;2023-07-16T12:19:24;11.95;;;5.53;;
26536;SDS011;14204;51.262;5.488;2023-07-16T12:21:50;10.80;;;5.13;;
26536;SDS011;14204;51.262;5.488;2023-07-16T12:24:15;8.93;;;4.72;;
26536;SDS011;14204;51.262;5.488;2023-07-16T12:26:42;8.35;;;4.40;;
26536;SDS011;14204;51.262;5.488;2023-07-16T12:29:07;8.48;;;4.88;;
26536;SDS011;14204;51.262;5.488;2023-07-16T12:31:33;11.50;;;5.18;;
26536;SDS011;14204;51.262;5.488;2023-07-16T12:34:00;11.48;;;5.03;;
26536;SDS011;14204;51.262;5.488;2023-07-16T12:36:29;8.25;;;4.93;;
26536;SDS011;14204;51.262;5.488;2023-07-16T12:38:55;8.55;;;5.20;;
26536;SDS011;14204;51.262;5.488;2023-07-16T12:41:20;9.63;;;5.50;;
26536;SDS011;14204;51.262;5.488;2023-07-16T12:43:46;10.80;;;5.80;;
26536;SDS011;14204;51.262;5.488;2023-07-16T12:46:12;10.18;;;5.50;;
26536;SDS011;14204;51.262;5.488;2023-07-16T12:48:38;7.47;;;4.82;;
26536;SDS011;14204;51.262;5.488;2023-07-16T12:51:04;6.93;;;4.35;;
26536;SDS011;14204;51.262;5.488;2023-07-16T12:53:29;10.23;;;5.07;;
26536;SDS011;14204;51.262;5.488;2023-07-16T12:55:55;7.88;;;4.35;;
26536;SDS011;14204;51.262;5.488;2023-07-16T12:58:21;11.60;;;4.80;;
26536;SDS011;14204;51.262;5.488;2023-07-16T13:00:47;8.40;;;4.75;;
26536;SDS011;14204;51.262;5.488;2023-07-16T13:03:13;7.68;;;4.75;;
26536;SDS011;14204;51.262;5.488;2023-07-16T13:05:41;8.93;;;4.68;;
26536;SDS011;14204;51.262;5.488;2023-07-16T13:08:08;9.50;;;4.82;;
26536;SDS011;14204;51.262;5.488;2023-07-16T13:10:34;7.72;;;4.65;;
26536;SDS011;14204;51.262;5.488;2023-07-16T13:13:00;7.20;;;4.95;;
26536;SDS011;14204;51.262;5.488;2023-07-16T13:15:26;12.77;;;5.78;;
26536;SDS011;14204;51.262;5.488;2023-07-16T13:17:51;10.68;;;5.57;;
26536;SDS011;14204;51.262;5.488;2023-07-16T13:20:17;6.63;;;5.03;;
26536;SDS011;14204;51.262;5.488;2023-07-16T13:22:45;6.78;;;4.90;;
26536;SDS011;14204;51.262;5.488;2023-07-16T13:25:10;7.18;;;4.72;;
26536;SDS011;14204;51.262;5.488;2023-07-16T13:27:36;8.45;;;4.90;;
26536;SDS011;14204;51.262;5.488;2023-07-16T13:30:02;8.65;;;4.97;;
26536;SDS011;14204;51.262;5.488;2023-07-16T13:32:28;10.68;;;4.95;;
26536;SDS011;14204;51.262;5.488;2023-07-16T13:34:54;8.43;;;5.05;;
26536;SDS011;14204;51.262;5.488;2023-07-16T13:37:19;8.88;;;4.95;;
26536;SDS011;14204;51.262;5.488;2023-07-16T13:39:45;8.95;;;4.35;;
26536;SDS011;14204;51.262;5.488;2023-07-16T13:42:11;7.93;;;4.40;;
26536;SDS011;14204;51.262;5.488;2023-07-16T13:44:37;11.50;;;5.05;;
26536;SDS011;14204;51.262;5.488;2023-07-16T13:47:02;9.00;;;4.93;;
26536;SDS011;14204;51.262;5.488;2023-07-16T13:49:28;9.07;;;4.95;;
26536;SDS011;14204;51.262;5.488;2023-07-16T13:51:55;7.53;;;4.60;;
26536;SDS011;14204;51.262;5.488;2023-07-16T13:54:20;8.23;;;4.88;;
26536;SDS011;14204;51.262;5.488;2023-07-16T13:56:46;9.45;;;5.28;;
26536;SDS011;14204;51.262;5.488;2023-07-16T13:59:13;9.77;;;5.00;;
26536;SDS011;14204;51.262;5.488;2023-07-16T14:01:39;8.80;;;5.18;;
26536;SDS011;14204;51.262;5.488;2023-07-16T14:04:05;8.65;;;4.80;;
26536;SDS011;14204;51.262;5.488;2023-07-16T14:06:31;8.00;;;4.80;;
26536;SDS011;14204;51.262;5.488;2023-07-16T14:08:57;5.60;;;3.83;;
26536;SDS011;14204;51.262;5.488;2023-07-16T14:11:23;8.13;;;4.20;;
26536;SDS011;14204;51.262;5.488;2023-07-16T14:13:50;7.07;;;4.90;;
26536;SDS011;14204;51.262;5.488;2023-07-16T14:16:20;9.73;;;4.80;;
26536;SDS011;14204;51.262;5.488;2023-07-16T14:18:52;8.05;;;4.47;;
26536;SDS011;14204;51.262;5.488;2023-07-16T14:21:19;6.10;;;4.50;;
26536;SDS011;14204;51.262;5.488;2023-07-16T14:23:45;11.52;;;4.97;;
26536;SDS011;14204;51.262;5.488;2023-07-16T14:26:11;10.35;;;4.60;;
26536;SDS011;14204;51.262;5.488;2023-07-16T14:28:37;8.90;;;4.88;;
26536;SDS011;14204;51.262;5.488;2023-07-16T14:31:03;7.72;;;4.38;;
26536;SDS011;14204;51.262;5.488;2023-07-16T14:33:29;9.15;;;4.30;;
26536;SDS011;14204;51.262;5.488;2023-07-16T14:35:55;9.40;;;4.88;;
26536;SDS011;14204;51.262;5.488;2023-07-16T14:38:21;7.88;;;4.40;;
26536;SDS011;14204;51.262;5.488;2023-07-16T14:40:46;7.03;;;4.65;;
26536;SDS011;14204;51.262;5.488;2023-07-16T14:43:13;6.45;;;4.25;;
26536;SDS011;14204;51.262;5.488;2023-07-16T14:45:39;8.65;;;4.80;;
26536;SDS011;14204;51.262;5.488;2023-07-16T14:48:05;6.93;;;4.22;;